KIFA

Iowa Falls Municipal Airport

Iowa Falls, Iowa, USA
METAR KIFA 172115Z AUTO 28013KT 10SM BKN012 00/M02 A3000 RMK AO2 T00001025
Observed Flight Rules
Feb-17 @ 21:15 UTC (19 minutes ago) Marginal Visual Flight Rules
Wind Visibility Clouds
280° at 13 knots 10 miles
  • Broken at 1,200' AGL
Temperatures Readings
Current 0°C / 32°F
Dewpoint -3°C / 27°F
Humidity 80%
Altimeter 30" Hg
Pressure 1016 hPa
Elevation 347
METAR KIFA 172115Z AUTO 28013KT 10SM BKN012 00/M02 A3000 RMK AO2 T00001025
Observed Flight Rules
Feb-17 @ 21:15 UTC
(19 minutes ago)
MVFR
Wind Visibility
280° at 13 knots 10 miles
Clouds
  • Broken at 1,200' AGL
Temperature Dewpoint
0°C / 32°F -3°C / 27°F
Humidity Altimeter Pressure
80% 30" Hg 1016 hPa